METAR rapporten vliegvelden

   
EHAM - Amsterdam
Gewijzigd: 20-06-2018 06:55
Grotendeels bewolkt  
Grotendeels bewolkt  
   Wind: ZZW 18.5 km/h
Wind: ZZW 18.5 km/h
Temperatuur: 16°C
Dauwpunt: 15°C
Vochtigheid: 94%
Barometer: 1021 hPa
Bewolking: Grotendeels bewolkt
Zicht: meer dan 10 km
Bewolking: Licht bewolkt 400 ft,
Grotendeels bewolkt 500 ft
EHAM 200455Z 21010KT 180V240 9999 FEW004 BKN005 16/15 Q1021 TEMPO BKN004
EHBK - Maastricht
Gewijzigd: 20-06-2018 06:55
Bewolking  
Bewolking  
   Wind: WZW 9.3 km/h
Wind: WZW 9.3 km/h
Temperatuur: 18°C
Dauwpunt: 15°C
Vochtigheid: 83%
Barometer: 1022 hPa
Bewolking: Bewolking
Zicht: meer dan 10 km
Bewolking: Bewolking 1300 ft
EHBK 200455Z AUTO 25005KT 210V280 9999 OVC013 18/15 Q1022 BECMG BKN015
ELLX - Luxemburg
Gewijzigd: 20-06-2018 06:50
Grotendeels bewolkt  
Grotendeels bewolkt  
   Wind: ONO 9.3 km/h
Wind: ONO 9.3 km/h
Temperatuur: 17°C
Dauwpunt: 16°C
Vochtigheid: 94%
Barometer: 1023 hPa
Bewolking: Grotendeels bewolkt
Zicht: meer dan 10 km
Bewolking: Grotendeels bewolkt 2800 ft
ELLX 200450Z 06005KT 9999 BKN028 17/16 Q1023 NOSIG
EDDL - Dusseldorf
Gewijzigd: 20-06-2018 06:50
Grotendeels bewolkt  
Grotendeels bewolkt  
   Wind: ZW 11.1 km/h
Wind: ZW 11.1 km/h
Temperatuur: 19°C
Dauwpunt: 16°C
Vochtigheid: 83%
Barometer: 1022 hPa
Bewolking: Grotendeels bewolkt
Zicht: meer dan 10 km
Bewolking: Licht bewolkt 3000 ft,
Grotendeels bewolkt 4000 ft
EDDL 200450Z 22006KT 9999 FEW030 BKN040 19/16 Q1022 NOSIG
  

Script ontwikkeld door  Saratoga-weather.org Aangepast voor de template door  Weerstation Leuven